Time;durP1;ratioP1;P1;durP2;ratioP2;P2;SDS_P1;SDS_P2;PMS_P1;PMS_P2;Temp;Humidity;BMP_temperature;BMP_pressure;BME280_temperature;BME280_humidity;BME280_pressure;Samples;Min_cycle;Max_cycle;Signal;HPM_P1;HPM_P2
2023/08/05 00:01:23;;;;;;;14.18;4.43;;;16.20;99.90;;;;;;5054823;28;20029;-66
2023/08/05 00:03:49;;;;;;;5.45;3.78;;;16.20;99.90;;;;;;5056018;28;20450;-66
2023/08/05 00:06:15;;;;;;;8.07;4.25;;;16.20;99.90;;;;;;5054467;28;20033;-66
2023/08/05 00:08:40;;;;;;;4.55;3.83;;;16.20;99.90;;;;;;5055694;28;20033;-66
2023/08/05 00:11:06;;;;;;;6.45;4.60;;;16.20;99.90;;;;;;5055299;28;20024;-67
2023/08/05 00:13:34;;;;;;;6.55;4.32;;;16.20;99.90;;;;;;5055539;28;20068;-67
2023/08/05 00:16:01;;;;;;;6.47;4.88;;;16.10;99.90;;;;;;5055656;28;20025;-66
2023/08/05 00:18:27;;;;;;;11.52;5.13;;;16.10;99.90;;;;;;5055337;28;20489;-67
2023/08/05 00:20:52;;;;;;;7.50;5.38;;;16.10;99.90;;;;;;5055454;28;20029;-66
2023/08/05 00:23:19;;;;;;;7.45;5.55;;;16.10;99.90;;;;;;5055165;28;20061;-66
2023/08/05 00:25:45;;;;;;;9.63;5.43;;;16.10;99.90;;;;;;5055637;28;20481;-65
2023/08/05 00:28:10;;;;;;;13.15;6.20;;;16.10;99.90;;;;;;5054208;28;20068;-66
2023/08/05 00:30:36;;;;;;;8.35;6.72;;;16.10;99.90;;;;;;5055350;28;20043;-66
2023/08/05 00:33:02;;;;;;;7.30;6.60;;;16.10;99.90;;;;;;5053943;28;20032;-66
2023/08/05 00:35:27;;;;;;;11.98;7.18;;;16.10;99.90;;;;;;5055171;28;20024;-67
2023/08/05 00:37:53;;;;;;;8.20;6.13;;;16.10;99.90;;;;;;5055016;28;20028;-67
2023/08/05 00:40:18;;;;;;;7.65;6.85;;;16.10;99.90;;;;;;5054789;28;20021;-67
2023/08/05 00:42:44;;;;;;;8.75;6.03;;;16.10;99.90;;;;;;5054987;28;20075;-66
2023/08/05 00:45:10;;;;;;;9.02;6.30;;;16.10;99.90;;;;;;5054916;28;20455;-67
2023/08/05 00:47:35;;;;;;;8.63;5.85;;;16.10;99.90;;;;;;5054918;28;20385;-66
2023/08/05 00:50:01;;;;;;;10.77;6.47;;;16.10;99.90;;;;;;5055108;28;20040;-66
2023/08/05 00:52:28;;;;;;;7.90;6.07;;;16.10;99.90;;;;;;5054545;28;20067;-66
2023/08/05 00:54:53;;;;;;;8.15;5.82;;;16.00;99.90;;;;;;5054899;28;20021;-66
2023/08/05 00:57:19;;;;;;;7.72;6.10;;;16.00;99.90;;;;;;5054451;28;20484;-66
2023/08/05 00:59:45;;;;;;;10.13;6.82;;;16.00;99.90;;;;;;5054919;28;20094;-66
2023/08/05 01:02:11;;;;;;;10.20;6.63;;;16.00;99.90;;;;;;5054701;28;20033;-66
2023/08/05 01:04:37;;;;;;;13.77;6.85;;;16.00;99.90;;;;;;5054629;28;20037;-66
2023/08/05 01:07:03;;;;;;;7.25;6.55;;;15.90;99.90;;;;;;5054550;28;20025;-66
2023/08/05 01:09:29;;;;;;;7.57;6.43;;;16.00;99.90;;;;;;5054566;28;20025;-66
2023/08/05 01:11:55;;;;;;;9.43;6.18;;;15.90;99.90;;;;;;5054474;28;20352;-66
2023/08/05 01:14:21;;;;;;;8.43;5.45;;;15.90;99.90;;;;;;5054418;28;20461;-66
2023/08/05 01:16:46;;;;;;;9.18;4.63;;;15.90;99.90;;;;;;5053085;28;20036;-66
2023/08/05 01:19:20;;;;;;;6.10;4.18;;;15.90;99.90;;;;;;5054397;28;20091;-66
2023/08/05 01:22:14;;;;;;;4.10;3.63;;;15.90;99.90;;;;;;5054312;28;20108;-66
2023/08/05 01:24:42;;;;;;;5.32;3.97;;;15.90;99.90;;;;;;5054330;28;20501;-66
2023/08/05 01:27:09;;;;;;;4.20;3.73;;;15.80;99.90;;;;;;5054241;28;20029;-66
2023/08/05 01:29:35;;;;;;;4.75;3.72;;;15.80;99.90;;;;;;5053892;28;20667;-67
2023/08/05 01:32:01;;;;;;;6.45;3.63;;;15.90;99.90;;;;;;5052781;28;20021;-67
2023/08/05 01:34:28;;;;;;;6.13;3.90;;;15.80;99.90;;;;;;5053834;28;20078;-67
2023/08/05 01:36:53;;;;;;;8.32;3.90;;;15.90;99.90;;;;;;5053777;28;20429;-67
2023/08/05 01:39:19;;;;;;;5.75;3.65;;;15.90;99.90;;;;;;5053659;28;20064;-66
2023/08/05 01:41:44;;;;;;;3.80;3.50;;;15.90;99.90;;;;;;5054052;28;20057;-66
2023/08/05 01:44:10;;;;;;;4.55;3.95;;;15.90;99.90;;;;;;5054249;28;20374;-66
2023/08/05 01:46:36;;;;;;;4.53;4.00;;;15.80;99.90;;;;;;5053614;28;20024;-66
2023/08/05 01:49:01;;;;;;;5.88;4.30;;;15.80;99.90;;;;;;5053573;28;20075;-66
2023/08/05 01:51:27;;;;;;;4.45;3.35;;;15.80;99.90;;;;;;5053858;28;20359;-67
2023/08/05 01:53:52;;;;;;;4.00;3.17;;;15.80;99.90;;;;;;5053610;28;20025;-68
2023/08/05 01:56:18;;;;;;;5.22;3.28;;;15.80;99.90;;;;;;5052689;28;20025;-66
2023/08/05 01:58:44;;;;;;;6.13;3.63;;;15.80;99.90;;;;;;5054091;28;20167;-66
2023/08/05 02:01:09;;;;;;;5.38;3.20;;;15.80;99.90;;;;;;5053682;28;20454;-66
2023/08/05 02:03:35;;;;;;;4.97;3.10;;;15.80;99.90;;;;;;5053716;28;20466;-66
2023/08/05 02:06:00;;;;;;;3.70;2.38;;;15.80;99.90;;;;;;5053611;28;20025;-66
2023/08/05 02:08:26;;;;;;;4.53;2.50;;;15.80;99.90;;;;;;5053448;28;20463;-66
2023/08/05 02:10:51;;;;;;;3.83;2.30;;;15.80;99.90;;;;;;5053369;28;20074;-66
2023/08/05 02:13:17;;;;;;;4.85;2.20;;;15.80;99.90;;;;;;5053536;28;20144;-66
2023/08/05 02:15:43;;;;;;;4.95;3.08;;;15.80;99.90;;;;;;5052321;28;20033;-66
2023/08/05 02:18:08;;;;;;;4.15;3.00;;;15.90;99.90;;;;;;5053699;28;20099;-66
2023/08/05 02:20:37;;;;;;;4.35;2.95;;;15.90;99.90;;;;;;5053512;28;20031;-66
2023/08/05 02:23:03;;;;;;;4.30;2.97;;;15.80;99.90;;;;;;5053321;28;20149;-66
2023/08/05 02:25:28;;;;;;;5.28;3.40;;;15.80;99.90;;;;;;5053943;28;20108;-66
2023/08/05 02:27:54;;;;;;;4.00;3.40;;;15.80;99.90;;;;;;5053426;28;20029;-66
2023/08/05 02:30:20;;;;;;;5.13;3.72;;;15.80;99.90;;;;;;5053422;28;20021;-66
2023/08/05 02:32:45;;;;;;;4.78;3.35;;;15.80;99.90;;;;;;5053515;28;20017;-66
2023/08/05 02:35:11;;;;;;;4.28;3.22;;;15.70;99.90;;;;;;5053165;28;20029;-66
2023/08/05 02:37:37;;;;;;;4.22;3.67;;;15.70;99.90;;;;;;5053373;28;20025;-66
2023/08/05 02:40:03;;;;;;;4.68;3.30;;;15.60;99.90;;;;;;5053897;28;20045;-66
2023/08/05 02:42:29;;;;;;;8.73;4.47;;;15.70;99.90;;;;;;5053463;28;20059;-66
2023/08/05 02:44:54;;;;;;;6.65;3.63;;;15.60;99.90;;;;;;5052983;28;20029;-66
2023/08/05 02:47:20;;;;;;;6.28;4.30;;;15.60;99.90;;;;;;5053201;28;20042;-66
2023/08/05 02:49:45;;;;;;;8.57;4.07;;;15.60;99.90;;;;;;5053196;28;20033;-66
2023/08/05 02:52:11;;;;;;;6.70;4.63;;;15.60;99.90;;;;;;5055504;28;20380;-66
2023/08/05 02:54:37;;;;;;;6.10;4.10;;;15.60;99.90;;;;;;5056809;28;20033;-66
2023/08/05 02:57:02;;;;;;;9.20;4.57;;;15.60;99.90;;;;;;5056729;28;20028;-67
2023/08/05 02:59:28;;;;;;;9.70;5.20;;;15.60;99.90;;;;;;5056989;28;20041;-66
2023/08/05 03:01:54;;;;;;;6.78;4.55;;;15.50;99.90;;;;;;5056851;28;20378;-66
2023/08/05 03:04:19;;;;;;;9.05;4.40;;;15.50;99.90;;;;;;5055861;28;20067;-66
2023/08/05 03:06:45;;;;;;;5.88;4.75;;;15.50;99.90;;;;;;5057124;28;20113;-66
2023/08/05 03:09:11;;;;;;;6.90;4.30;;;15.50;99.90;;;;;;5056796;28;20028;-66
2023/08/05 03:11:36;;;;;;;4.90;3.92;;;15.50;99.90;;;;;;5056392;28;20025;-66
2023/08/05 03:14:02;;;;;;;7.65;4.07;;;15.50;99.90;;;;;;5056395;28;20027;-66
2023/08/05 03:16:27;;;;;;;7.13;3.92;;;15.50;99.90;;;;;;5057110;28;20098;-66
2023/08/05 03:18:53;;;;;;;7.00;3.85;;;15.50;99.90;;;;;;5057318;28;20029;-66
2023/08/05 03:21:19;;;;;;;5.22;3.95;;;15.50;99.90;;;;;;5056624;28;20536;-66
2023/08/05 03:23:44;;;;;;;10.35;4.45;;;15.50;99.90;;;;;;5056489;28;20124;-67
2023/08/05 03:26:10;;;;;;;7.53;4.03;;;15.50;99.90;;;;;;5056521;28;20029;-66
2023/08/05 03:28:35;;;;;;;7.38;4.65;;;15.50;99.90;;;;;;5056447;28;20025;-66
2023/08/05 03:31:02;;;;;;;6.82;4.03;;;15.50;99.90;;;;;;5056417;28;20056;-66
2023/08/05 03:33:27;;;;;;;8.93;4.35;;;15.50;99.90;;;;;;5056059;28;20032;-66
2023/08/05 03:35:54;;;;;;;5.68;4.20;;;15.50;99.90;;;;;;5056125;28;20036;-66
2023/08/05 03:38:20;;;;;;;8.55;4.80;;;15.50;99.90;;;;;;5054909;28;20474;-66
2023/08/05 03:40:45;;;;;;;8.70;4.97;;;15.50;99.90;;;;;;5055997;28;20033;-66
2023/08/05 03:43:11;;;;;;;10.35;4.43;;;15.50;99.90;;;;;;5056438;28;20028;-66
2023/08/05 03:45:37;;;;;;;5.90;4.30;;;15.60;99.90;;;;;;5056164;28;20025;-66
2023/08/05 03:48:03;;;;;;;7.47;4.10;;;15.50;99.90;;;;;;5056370;28;20025;-66
2023/08/05 03:50:28;;;;;;;4.80;4.20;;;15.60;99.90;;;;;;5056212;28;20374;-66
2023/08/05 03:52:58;;;;;;;4.63;3.72;;;15.60;99.90;;;;;;5054823;28;20024;-66
2023/08/05 03:55:23;;;;;;;;;;;15.60;99.90;;;;;;5056612;28;20082;-66
2023/08/05 03:57:49;;;;;;;6.80;3.97;;;15.60;99.90;;;;;;5056127;28;19904;-67
2023/08/05 04:00:15;;;;;;;8.88;4.60;;;15.70;99.90;;;;;;5055779;28;20036;-67
2023/08/05 04:02:41;;;;;;;7.72;4.03;;;15.70;99.90;;;;;;5054585;28;20032;-67
2023/08/05 04:05:07;;;;;;;5.20;4.70;;;15.70;99.90;;;;;;5055441;28;20392;-67
2023/08/05 04:07:33;;;;;;;4.68;3.90;;;15.70;99.90;;;;;;5055816;28;20029;-67
2023/08/05 04:09:59;;;;;;;4.90;3.90;;;15.70;99.90;;;;;;5055736;28;20032;-67
2023/08/05 04:12:26;;;;;;;6.55;3.53;;;15.70;99.90;;;;;;5055578;28;20028;-68
2023/08/05 04:14:52;;;;;;;4.88;4.15;;;15.70;99.90;;;;;;5055603;28;20112;-67
2023/08/05 04:17:20;;;;;;;5.20;4.25;;;15.70;99.90;;;;;;5055841;28;20374;-66
2023/08/05 04:19:47;;;;;;;17.00;4.13;;;15.70;99.90;;;;;;5054111;28;20072;-66
2023/08/05 04:22:15;;;;;;;7.22;4.18;;;15.70;99.90;;;;;;5055414;28;20025;-66
2023/08/05 04:24:42;;;;;;;7.22;4.40;;;15.80;99.90;;;;;;5055023;28;20056;-66
2023/08/05 04:27:08;;;;;;;5.22;4.15;;;15.70;99.90;;;;;;5055259;28;20025;-66
2023/08/05 04:29:34;;;;;;;5.97;4.22;;;15.80;99.90;;;;;;5055462;28;20423;-66
2023/08/05 04:31:59;;;;;;;7.60;4.20;;;15.80;99.90;;;;;;5055675;28;20459;-67
2023/08/05 04:34:25;;;;;;;5.03;3.78;;;15.80;99.90;;;;;;5054082;28;20029;-66
2023/08/05 04:36:51;;;;;;;4.30;3.53;;;15.90;99.90;;;;;;5055162;28;20025;-66
2023/08/05 04:39:20;;;;;;;4.97;4.05;;;15.90;99.90;;;;;;5055066;28;20043;-66
2023/08/05 04:41:47;;;;;;;4.97;3.45;;;15.90;99.90;;;;;;5054413;28;20146;-66
2023/08/05 04:44:12;;;;;;;6.05;3.42;;;15.90;99.90;;;;;;5055096;28;20033;-66
2023/08/05 04:46:38;;;;;;;3.40;3.05;;;16.00;99.90;;;;;;5054973;28;20052;-66
2023/08/05 04:49:07;;;;;;;6.72;2.95;;;16.00;99.90;;;;;;5055155;28;20409;-67
2023/08/05 04:51:35;;;;;;;4.90;2.95;;;16.10;99.90;;;;;;5054997;28;20049;-66
2023/08/05 04:54:02;;;;;;;6.35;2.90;;;16.10;99.90;;;;;;5054832;28;20033;-66
2023/08/05 04:56:27;;;;;;;3.65;3.35;;;16.10;99.90;;;;;;5054796;28;20029;-67
2023/08/05 04:58:53;;;;;;;4.93;3.58;;;16.10;99.90;;;;;;5054610;28;20039;-66
2023/08/05 05:01:18;;;;;;;5.95;3.78;;;16.10;99.90;;;;;;5054895;28;20359;-66
2023/08/05 05:03:46;;;;;;;4.53;3.80;;;16.10;99.90;;;;;;5054617;28;20021;-66
2023/08/05 05:06:12;;;;;;;8.02;4.63;;;16.10;99.90;;;;;;5054621;28;20021;-66
2023/08/05 05:08:38;;;;;;;8.13;4.57;;;16.10;99.90;;;;;;5052941;28;20029;-67
2023/08/05 05:11:04;;;;;;;7.32;4.28;;;16.00;99.90;;;;;;5054521;28;20024;-67
2023/08/05 05:13:29;;;;;;;10.13;5.05;;;16.00;99.90;;;;;;5053748;28;20028;-67
2023/08/05 05:15:55;;;;;;;9.95;5.38;;;16.00;99.90;;;;;;5054299;28;20021;-67
2023/08/05 05:18:21;;;;;;;11.40;5.20;;;15.90;99.90;;;;;;5054398;28;20033;-67
2023/08/05 05:20:54;;;;;;;11.02;5.40;;;15.90;99.90;;;;;;5054270;28;20021;-68
2023/08/05 05:23:20;;;;;;;5.28;4.65;;;15.90;99.90;;;;;;5054445;28;20132;-68
2023/08/05 05:25:46;;;;;;;8.40;4.90;;;15.90;99.90;;;;;;5054208;28;20101;-68
2023/08/05 05:28:11;;;;;;;9.27;5.90;;;15.90;99.90;;;;;;5054158;28;20385;-68
2023/08/05 05:30:38;;;;;;;7.88;5.05;;;15.90;99.90;;;;;;5054437;28;20025;-68
2023/08/05 05:33:03;;;;;;;7.03;5.45;;;16.00;99.90;;;;;;5054067;28;20053;-68
2023/08/05 05:35:29;;;;;;;7.90;5.30;;;16.00;99.90;;;;;;5054584;28;20076;-68
2023/08/05 05:37:55;;;;;;;9.40;5.60;;;16.00;99.90;;;;;;5054332;28;20057;-68
2023/08/05 05:40:21;;;;;;;8.40;5.85;;;16.00;99.90;;;;;;5053914;28;20055;-69
2023/08/05 05:42:49;;;;;;;6.97;5.35;;;16.00;99.90;;;;;;5053645;28;20497;-60
2023/08/05 05:45:16;;;;;;;7.78;4.95;;;16.10;99.90;;;;;;5054053;28;20418;-60
2023/08/05 05:47:42;;;;;;;6.05;4.20;;;16.20;99.90;;;;;;5053620;28;20029;-60
2023/08/05 05:50:08;;;;;;;6.97;4.88;;;16.20;99.90;;;;;;5052614;28;20474;-60
2023/08/05 05:52:34;;;;;;;6.55;4.47;;;16.30;99.90;;;;;;5053806;28;20533;-60
2023/08/05 05:55:00;;;;;;;3.97;3.28;;;16.30;99.90;;;;;;5053750;28;20143;-60
2023/08/05 05:57:25;;;;;;;4.47;3.78;;;16.30;99.90;;;;;;5053971;28;20025;-60
2023/08/05 05:59:51;;;;;;;7.05;3.80;;;16.30;99.90;;;;;;5053524;28;20033;-60
2023/08/05 06:02:17;;;;;;;3.97;3.33;;;16.30;99.90;;;;;;5053650;28;20024;-60
2023/08/05 06:04:44;;;;;;;5.03;4.10;;;16.30;99.90;;;;;;5052378;28;20029;-60
2023/08/05 06:07:10;;;;;;;4.13;3.80;;;16.30;99.90;;;;;;5054147;28;20064;-60
2023/08/05 06:09:35;;;;;;;7.60;4.00;;;16.30;99.90;;;;;;5053547;28;20068;-60
2023/08/05 06:12:01;;;;;;;7.30;4.05;;;16.40;99.90;;;;;;5054128;28;20426;-60
2023/08/05 06:14:29;;;;;;;6.20;4.07;;;16.40;99.90;;;;;;5053852;28;20028;-60
2023/08/05 06:16:55;;;;;;;6.57;4.65;;;16.40;99.90;;;;;;5053753;28;20442;-58
2023/08/05 06:19:20;;;;;;;4.65;4.25;;;16.30;99.90;;;;;;5053520;28;20117;-58
2023/08/05 06:21:46;;;;;;;4.65;3.80;;;16.30;99.90;;;;;;5053325;28;20021;-71
2023/08/05 06:24:12;;;;;;;5.28;4.10;;;16.20;99.90;;;;;;5053629;28;20071;-74
2023/08/05 06:26:38;;;;;;;4.72;4.20;;;16.10;99.90;;;;;;5055435;28;20057;-71
2023/08/05 06:29:03;;;;;;;6.32;4.10;;;16.10;99.90;;;;;;5057800;28;20029;-71
2023/08/05 06:31:30;;;;;;;4.38;3.95;;;16.10;99.90;;;;;;5057345;28;20151;-71
2023/08/05 06:33:56;;;;;;;4.22;3.40;;;16.10;99.90;;;;;;5057175;28;20021;-71
2023/08/05 06:36:22;;;;;;;5.05;4.55;;;16.10;99.90;;;;;;5055909;28;20032;-71
2023/08/05 06:38:48;;;;;;;3.83;3.33;;;16.10;99.90;;;;;;5057419;28;20037;-69
2023/08/05 06:41:13;;;;;;;6.47;3.80;;;16.00;99.90;;;;;;5057203;28;20056;-69
2023/08/05 06:43:39;;;;;;;7.57;3.80;;;16.00;99.90;;;;;;5056933;28;20028;-71
2023/08/05 06:46:05;;;;;;;6.43;3.80;;;16.00;99.90;;;;;;5055898;28;20025;-71
2023/08/05 06:48:31;;;;;;;4.90;3.28;;;16.00;99.90;;;;;;5057218;28;20029;-69
2023/08/05 06:50:56;;;;;;;4.40;3.20;;;16.00;99.90;;;;;;5057469;28;20120;-71
2023/08/05 06:53:22;;;;;;;5.07;4.20;;;16.00;99.90;;;;;;5056675;28;20051;-68
2023/08/05 06:55:48;;;;;;;4.93;3.30;;;15.90;99.90;;;;;;5056659;28;20051;-69
2023/08/05 06:58:13;;;;;;;3.33;3.03;;;16.00;99.90;;;;;;5055522;28;20025;-69
2023/08/05 07:00:39;;;;;;;4.65;3.40;;;15.90;99.90;;;;;;5056434;28;20104;-70
2023/08/05 07:03:05;;;;;;;4.35;3.70;;;16.00;99.90;;;;;;5057055;28;20347;-69
2023/08/05 07:05:31;;;;;;;7.45;4.00;;;16.00;99.90;;;;;;5055818;28;20025;-68
2023/08/05 07:07:56;;;;;;;4.50;4.13;;;16.00;99.90;;;;;;5056990;28;20035;-68
2023/08/05 07:10:23;;;;;;;7.00;4.05;;;16.00;99.90;;;;;;5057232;28;20036;-68
2023/08/05 07:12:49;;;;;;;3.42;3.15;;;16.10;99.90;;;;;;5056781;28;20017;-68
2023/08/05 07:15:14;;;;;;;6.90;3.40;;;16.10;99.90;;;;;;5056888;28;20036;-69
2023/08/05 07:17:41;;;;;;;4.38;3.53;;;16.10;99.90;;;;;;5056682;28;20025;-61
2023/08/05 07:20:07;;;;;;;3.95;3.45;;;16.20;99.90;;;;;;5056314;28;20051;-61
2023/08/05 07:22:35;;;;;;;4.95;3.30;;;16.20;99.90;;;;;;5056562;28;20370;-61
2023/08/05 07:25:00;;;;;;;4.20;3.13;;;16.30;99.90;;;;;;5056857;28;20049;-61
2023/08/05 07:27:27;;;;;;;3.20;2.95;;;16.30;99.90;;;;;;5056478;28;20025;-61
2023/08/05 07:29:52;;;;;;;3.83;3.42;;;16.40;99.90;;;;;;5056850;28;20037;-61
2023/08/05 07:32:18;;;;;;;6.70;3.10;;;16.40;99.90;;;;;;5055078;28;20036;-61
2023/08/05 07:34:45;;;;;;;5.97;3.55;;;16.40;99.90;;;;;;5056064;28;20032;-62
2023/08/05 07:37:14;;;;;;;4.25;3.60;;;16.40;99.90;;;;;;5054427;28;20079;-63
2023/08/05 07:39:45;;;;;;;3.83;3.28;;;16.50;99.90;;;;;;5056186;28;20029;-62
2023/08/05 07:42:11;;;;;;;3.15;2.92;;;16.60;99.90;;;;;;5056356;28;20033;-63
2023/08/05 07:44:38;;;;;;;4.30;3.22;;;16.60;99.90;;;;;;5055880;28;20075;-63
2023/08/05 07:47:05;;;;;;;2.90;2.70;;;16.70;99.90;;;;;;5056071;28;20033;-63
2023/08/05 07:49:31;;;;;;;4.60;3.30;;;16.60;99.90;;;;;;5055752;28;20386;-63
2023/08/05 07:51:56;;;;;;;3.35;3.15;;;16.70;99.90;;;;;;5055721;28;20036;-63
2023/08/05 07:54:24;;;;;;;4.65;3.20;;;16.70;99.90;;;;;;5055960;28;20032;-62
2023/08/05 07:56:50;;;;;;;3.15;2.85;;;16.80;99.90;;;;;;5055895;28;20033;-63
2023/08/05 07:59:17;;;;;;;3.22;2.90;;;16.80;99.90;;;;;;5054614;28;20402;-66
2023/08/05 08:01:45;;;;;;;7.85;2.83;;;16.70;99.90;;;;;;5055808;28;20033;-66
2023/08/05 08:04:12;;;;;;;3.33;2.92;;;16.70;99.90;;;;;;5055856;28;20402;-66
2023/08/05 08:06:38;;;;;;;3.20;2.75;;;16.70;99.90;;;;;;5055703;28;20025;-66
2023/08/05 08:09:04;;;;;;;3.15;2.95;;;16.70;99.90;;;;;;5055613;28;20120;-67
2023/08/05 08:11:29;;;;;;;3.45;3.10;;;16.70;99.90;;;;;;5055770;28;20025;-67
2023/08/05 08:13:55;;;;;;;3.00;2.80;;;16.60;99.90;;;;;;5055598;28;20036;-66
2023/08/05 08:16:21;;;;;;;6.32;3.10;;;16.60;99.90;;;;;;5055273;28;20104;-66
2023/08/05 08:18:46;;;;;;;4.20;3.33;;;16.60;99.90;;;;;;5055335;28;20493;-66
2023/08/05 08:21:12;;;;;;;5.15;3.40;;;16.60;99.90;;;;;;5055351;28;20478;-66
2023/08/05 08:23:38;;;;;;;3.83;3.42;;;16.60;99.90;;;;;;5055046;28;20049;-66
2023/08/05 08:26:03;;;;;;;4.05;3.63;;;16.60;99.90;;;;;;5055326;28;20059;-66
2023/08/05 08:28:29;;;;;;;6.50;4.25;;;16.60;99.90;;;;;;5055249;28;20036;-66
2023/08/05 08:30:57;;;;;;;4.70;3.85;;;16.60;99.90;;;;;;5054143;28;20433;-66
2023/08/05 08:33:24;;;;;;;4.88;4.30;;;16.60;99.90;;;;;;5053830;28;20088;-66
2023/08/05 08:35:50;;;;;;;6.50;3.95;;;16.60;99.90;;;;;;5055085;28;20356;-66
2023/08/05 08:38:17;;;;;;;7.80;3.90;;;16.60;99.90;;;;;;5055005;28;20390;-66
2023/08/05 08:40:47;;;;;;;4.80;4.15;;;16.60;99.90;;;;;;5054094;28;20386;-66
2023/08/05 08:43:18;;;;;;;6.97;3.72;;;16.60;99.90;;;;;;5055202;28;20027;-66
2023/08/05 08:45:46;;;;;;;5.25;4.40;;;16.60;99.90;;;;;;5054714;28;20032;-66
2023/08/05 08:48:13;;;;;;;5.83;4.43;;;16.60;99.90;;;;;;5054467;28;20046;-65
2023/08/05 08:50:40;;;;;;;5.07;4.60;;;16.60;99.90;;;;;;5054407;28;20262;-66
2023/08/05 08:53:10;;;;;;;13.35;6.03;;;16.60;99.90;;;;;;5054786;28;20459;-66
2023/08/05 08:55:37;;;;;;;4.80;4.38;;;16.60;99.90;;;;;;5054748;28;20036;-69
2023/08/05 08:58:02;;;;;;;6.60;4.57;;;16.70;99.90;;;;;;5054948;28;20379;-67
2023/08/05 09:00:29;;;;;;;6.60;4.97;;;16.70;99.90;;;;;;5054760;28;20037;-66
2023/08/05 09:02:56;;;;;;;7.20;4.50;;;16.70;99.90;;;;;;5054678;28;20426;-66
2023/08/05 09:05:22;;;;;;;5.57;4.82;;;16.60;99.90;;;;;;5054615;28;20028;-67
2023/08/05 09:07:50;;;;;;;5.38;4.72;;;16.60;99.90;;;;;;5054307;28;20029;-66
2023/08/05 09:10:15;;;;;;;5.97;4.80;;;16.60;99.90;;;;;;5053274;28;20071;-66
2023/08/05 09:12:42;;;;;;;4.60;4.20;;;16.60;99.90;;;;;;5054525;28;20028;-66
2023/08/05 09:15:08;;;;;;;7.47;4.53;;;16.50;99.90;;;;;;5054107;28;20387;-66
2023/08/05 09:17:38;;;;;;;5.30;4.80;;;16.50;99.90;;;;;;5054135;28;20025;-66
2023/08/05 09:20:17;;;;;;;6.57;4.88;;;16.50;99.90;;;;;;5054289;28;20390;-66
2023/08/05 09:22:56;;;;;;;5.93;5.13;;;16.40;99.90;;;;;;5054054;28;20029;-66
2023/08/05 09:25:23;;;;;;;5.75;5.20;;;16.40;99.90;;;;;;5053944;28;20025;-66
2023/08/05 09:27:53;;;;;;;5.05;4.65;;;16.40;99.90;;;;;;5054162;28;20025;-66
2023/08/05 09:30:23;;;;;;;4.65;4.18;;;16.40;99.90;;;;;;5054391;28;20443;-66
2023/08/05 09:32:49;;;;;;;5.28;4.78;;;16.50;99.90;;;;;;5054075;28;20029;-66
2023/08/05 09:35:16;;;;;;;4.63;4.18;;;16.50;99.90;;;;;;5053934;28;20078;-66
2023/08/05 09:37:49;;;;;;;5.90;4.22;;;16.50;99.90;;;;;;5052708;28;20120;-66
2023/08/05 09:40:24;;;;;;;4.18;3.78;;;16.50;99.90;;;;;;5053652;28;20033;-67
2023/08/05 09:42:54;;;;;;;5.50;4.03;;;16.50;99.90;;;;;;5053976;28;20028;-67
2023/08/05 09:45:20;;;;;;;5.90;4.55;;;16.50;99.90;;;;;;5052590;28;20370;-66
2023/08/05 09:47:49;;;;;;;4.90;4.00;;;16.50;99.90;;;;;;5053903;28;20021;-67
2023/08/05 09:50:15;;;;;;;4.33;3.40;;;16.50;99.90;;;;;;5053815;28;20036;-67
2023/08/05 09:52:43;;;;;;;3.20;3.00;;;16.50;99.90;;;;;;5053861;28;20035;-67
2023/08/05 09:55:18;;;;;;;8.35;3.30;;;16.40;99.90;;;;;;5053689;28;20112;-68
2023/08/05 09:57:45;;;;;;;6.35;3.50;;;16.40;99.90;;;;;;5053760;28;20021;-68
2023/08/05 10:00:14;;;;;;;7.90;3.58;;;16.40;99.90;;;;;;5053132;28;20091;-68
2023/08/05 10:02:44;;;;;;;3.35;3.05;;;16.30;99.90;;;;;;5053729;28;20029;-68
2023/08/05 10:05:12;;;;;;;3.92;3.03;;;16.30;99.90;;;;;;5053639;28;20029;-68
2023/08/05 10:07:40;;;;;;;3.17;2.97;;;16.30;99.90;;;;;;5053459;28;20030;-68
2023/08/05 10:10:19;;;;;;;4.97;3.17;;;16.40;99.90;;;;;;5053531;28;20029;-68
2023/08/05 10:13:08;;;;;;;4.63;3.22;;;16.40;99.90;;;;;;5053661;28;20091;-69
2023/08/05 10:15:37;;;;;;;5.35;2.92;;;16.40;99.90;;;;;;5053866;28;20025;-68
2023/08/05 10:18:07;;;;;;;;;;;16.40;99.90;;;;;;5054264;28;20086;-71
2023/08/05 10:20:36;;;;;;;5.13;3.53;;;16.40;99.90;;;;;;5053379;28;20019;-69
2023/08/05 10:23:13;;;;;;;8.88;4.32;;;16.40;99.90;;;;;;5053309;28;20041;-68
2023/08/05 10:25:44;;;;;;;7.15;4.20;;;16.40;99.90;;;;;;5053959;28;20036;-68
2023/08/05 10:28:31;;;;;;;4.47;3.67;;;16.40;99.90;;;;;;5053246;28;20363;-68
2023/08/05 10:30:57;;;;;;;4.78;3.70;;;16.40;99.90;;;;;;5052407;28;20032;-68
2023/08/05 10:33:27;;;;;;;4.45;3.55;;;16.50;99.90;;;;;;5053309;28;20112;-67
2023/08/05 10:36:01;;;;;;;5.28;3.22;;;16.50;99.90;;;;;;5052685;28;20459;-86
2023/08/05 10:38:26;;;;;;;3.28;2.97;;;16.60;99.90;;;;;;5053608;28;20032;-84
2023/08/05 10:41:03;;;;;;;4.10;3.08;;;16.50;99.90;;;;;;5052538;28;20025;-82
2023/08/05 10:43:35;;;;;;;3.45;3.00;;;16.50;99.90;;;;;;5052395;28;20025;-83
2023/08/05 10:46:07;;;;;;;4.10;3.70;;;16.50;99.90;;;;;;5053416;28;20026;-82
2023/08/05 10:48:35;;;;;;;4.10;2.92;;;16.60;99.90;;;;;;5053159;28;20033;-82
2023/08/05 10:51:08;;;;;;;3.78;3.35;;;16.60;99.90;;;;;;5052660;28;20422;-83
2023/08/05 10:53:34;;;;;;;4.00;3.50;;;16.50;99.90;;;;;;5052245;28;20032;-81
2023/08/05 10:56:00;;;;;;;4.10;3.53;;;16.50;99.90;;;;;;5052062;28;20028;-82
2023/08/05 10:58:30;;;;;;;2.80;2.60;;;16.50;99.90;;;;;;5053614;28;20070;-83
2023/08/05 11:01:00;;;;;;;3.42;3.13;;;16.40;99.90;;;;;;5052407;28;20037;-86
2023/08/05 11:03:43;;;;;;;5.68;3.42;;;16.40;99.90;;;;;;5052898;28;20048;-83
2023/08/05 11:06:10;;;;;;;4.72;3.60;;;16.40;99.90;;;;;;5053933;28;20382;-89
2023/08/05 11:08:38;;;;;;;6.63;3.60;;;16.30;99.90;;;;;;5054547;28;20056;-87
2023/08/05 11:11:14;;;;;;;11.52;4.10;;;16.30;99.90;;;;;;5053134;28;20033;-90
2023/08/05 11:13:41;;;;;;;10.20;5.13;;;16.20;99.90;;;;;;5056265;28;20389;-81
2023/08/05 11:16:18;;;;;;;11.80;4.80;;;16.30;99.90;;;;;;5057021;28;20032;-82
2023/08/05 11:18:56;;;;;;;8.68;4.80;;;16.40;99.90;;;;;;5056204;28;20130;-80
2023/08/05 11:21:22;;;;;;;4.07;3.57;;;16.40;99.90;;;;;;5055376;28;20036;-81
2023/08/05 11:23:47;;;;;;;3.95;3.63;;;16.30;99.90;;;;;;5055365;28;20153;-88
2023/08/05 11:26:13;;;;;;;4.05;3.35;;;16.30;99.90;;;;;;5057253;28;20100;-89
2023/08/05 11:28:46;;;;;;;3.45;3.20;;;16.30;99.90;;;;;;5056234;28;20037;-90
2023/08/05 11:31:30;;;;;;;7.53;3.40;;;16.30;99.90;;;;;;5056252;28;20033;-82
2023/08/05 11:33:56;;;;;;;3.50;3.17;;;16.40;99.90;;;;;;5055921;28;20028;-87
2023/08/05 11:36:26;;;;;;;4.13;3.00;;;16.40;99.90;;;;;;5055547;28;20025;-71
2023/08/05 11:38:52;;;;;;;6.22;3.50;;;16.50;99.90;;;;;;5056243;28;20033;-68
2023/08/05 11:41:18;;;;;;;3.83;3.50;;;16.60;99.90;;;;;;5056434;28;20520;-67
2023/08/05 11:43:43;;;;;;;4.40;3.28;;;16.50;99.90;;;;;;5055439;28;20071;-68
2023/08/05 11:46:27;;;;;;;3.80;3.40;;;16.50;99.90;;;;;;5056092;28;20072;-67
2023/08/05 11:49:09;;;;;;;4.32;3.95;;;16.50;99.90;;;;;;5056207;28;20067;-68
2023/08/05 11:51:44;;;;;;;5.85;3.53;;;16.40;99.90;;;;;;5055733;28;20017;-66
2023/08/05 11:54:10;;;;;;;5.10;3.83;;;16.40;99.90;;;;;;5056007;28;20021;-65
2023/08/05 11:56:35;;;;;;;9.90;3.78;;;16.50;99.90;;;;;;5054693;28;20427;-65
2023/08/05 11:59:01;;;;;;;10.10;4.90;;;16.50;99.90;;;;;;5055800;28;20061;-65
2023/08/05 12:01:27;;;;;;;6.43;4.72;;;16.40;99.90;;;;;;5055853;28;20029;-62
2023/08/05 12:03:57;;;;;;;4.05;3.65;;;16.40;99.90;;;;;;5055473;28;20099;-63
2023/08/05 12:06:26;;;;;;;4.25;3.63;;;16.50;99.90;;;;;;5055804;28;20108;-63
2023/08/05 12:08:58;;;;;;;;;;;16.50;99.90;;;;;;5056057;28;20028;-64
2023/08/05 12:11:24;;;;;;;3.17;2.70;;;16.40;99.90;;;;;;5055472;28;19987;-64
2023/08/05 12:13:50;;;;;;;2.97;2.67;;;16.40;99.90;;;;;;5055563;28;20098;-64
2023/08/05 12:16:16;;;;;;;2.78;1.67;;;16.30;99.90;;;;;;5055473;28;20408;-65
2023/08/05 12:18:45;;;;;;;1.52;1.40;;;16.30;99.90;;;;;;5055544;28;20033;-65
2023/08/05 12:21:11;;;;;;;1.15;1.13;;;16.30;99.90;;;;;;5055674;28;20025;-68
2023/08/05 12:23:41;;;;;;;2.15;1.90;;;16.20;99.90;;;;;;5055247;28;20072;-69
2023/08/05 12:26:07;;;;;;;3.75;1.77;;;16.30;99.90;;;;;;5055565;28;20030;-70
2023/08/05 12:28:33;;;;;;;2.40;1.33;;;16.40;99.90;;;;;;5055343;28;20078;-71
2023/08/05 12:30:58;;;;;;;1.75;1.65;;;16.40;99.90;;;;;;5055371;28;20366;-72
2023/08/05 12:33:24;;;;;;;1.40;1.40;;;16.40;99.90;;;;;;5055183;28;20466;-70
2023/08/05 12:35:50;;;;;;;2.05;1.35;;;16.50;99.90;;;;;;5055060;28;20040;-69
2023/08/05 12:38:15;;;;;;;2.72;1.10;;;16.50;99.90;;;;;;5054980;28;20064;-70
2023/08/05 12:40:41;;;;;;;2.28;1.38;;;16.60;99.90;;;;;;5054969;28;20032;-70
2023/08/05 12:43:07;;;;;;;1.00;1.00;;;16.60;99.90;;;;;;5053719;28;20071;-70
2023/08/05 12:45:32;;;;;;;3.00;1.52;;;16.60;99.90;;;;;;5055118;28;20025;-69
2023/08/05 12:47:58;;;;;;;1.02;0.98;;;16.60;99.90;;;;;;5054936;28;20055;-69